createdAt,value
2023-02-22T00:00:48.077Z,6.22
2023-02-22T00:03:25.013Z,6.85
2023-02-22T00:06:18.597Z,7.57
2023-02-22T00:08:47.896Z,6.35
2023-02-22T00:11:14.956Z,6.85
2023-02-22T00:13:44.907Z,7.57
2023-02-22T00:16:20.940Z,7.95
2023-02-22T00:18:48.089Z,8.25
2023-02-22T00:21:16.699Z,7.97
2023-02-22T00:23:46.673Z,8.88
2023-02-22T00:26:18.129Z,8.23
2023-02-22T00:28:52.099Z,9.02
2023-02-22T00:31:19.609Z,8.10
2023-02-22T00:33:46.383Z,8.55
2023-02-22T00:36:14.033Z,8.32
2023-02-22T00:38:41.680Z,8.77
2023-02-22T00:41:09.155Z,8.23
2023-02-22T00:43:35.795Z,9.30
2023-02-22T00:46:02.546Z,8.50
2023-02-22T00:48:29.084Z,8.13
2023-02-22T00:50:55.510Z,8.00
2023-02-22T00:53:23.983Z,9.18
2023-02-22T00:55:51.005Z,8.30
2023-02-22T00:58:18.445Z,9.05
2023-02-22T01:00:45.506Z,10.00
2023-02-22T01:03:17.187Z,8.55
2023-02-22T01:05:44.317Z,8.98
2023-02-22T01:08:13.622Z,8.15
2023-02-22T01:10:40.394Z,9.02
2023-02-22T01:13:12.236Z,8.98
2023-02-22T01:15:41.290Z,8.75
2023-02-22T01:18:08.588Z,9.07
2023-02-22T01:20:35.776Z,8.15
2023-02-22T01:23:03.746Z,9.50
2023-02-22T01:25:31.542Z,9.23
2023-02-22T01:27:59.713Z,8.95
2023-02-22T01:30:30.053Z,8.60
2023-02-22T01:32:56.827Z,8.40
2023-02-22T01:35:30.652Z,9.00
2023-02-22T01:37:58.023Z,8.57
2023-02-22T01:40:34.325Z,9.45
2023-02-22T01:43:03.526Z,8.65
2023-02-22T01:45:29.893Z,8.90
2023-02-22T01:47:59.331Z,8.77
2023-02-22T01:50:26.612Z,9.30
2023-02-22T01:52:53.084Z,10.18
2023-02-22T01:55:19.671Z,10.98
2023-02-22T01:57:47.752Z,10.75
2023-02-22T02:00:19.565Z,12.98
2023-02-22T02:02:51.186Z,12.65
2023-02-22T02:05:24.088Z,14.25
2023-02-22T02:07:52.513Z,13.95
2023-02-22T02:10:21.378Z,14.73
2023-02-22T02:12:50.357Z,14.18
2023-02-22T02:15:23.888Z,15.82
2023-02-22T02:17:53.088Z,16.15
2023-02-22T02:20:27.915Z,15.45
2023-02-22T02:23:08.352Z,15.40
2023-02-22T02:25:43.420Z,17.40
2023-02-22T02:28:45.435Z,18.20
2023-02-22T02:31:20.800Z,18.25
2023-02-22T02:34:00.423Z,15.25
2023-02-22T02:36:36.982Z,15.48
2023-02-22T02:39:30.990Z,13.77
2023-02-22T02:42:02.210Z,15.48
2023-02-22T02:47:07.870Z,14.40
2023-02-22T02:49:46.540Z,14.63
2023-02-22T02:52:15.969Z,13.55
2023-02-22T02:54:43.695Z,14.68
2023-02-22T02:57:10.145Z,14.95
2023-02-22T02:59:38.281Z,13.50
2023-02-22T03:02:38.162Z,14.38
2023-02-22T03:05:34.439Z,14.82
2023-02-22T03:08:17.095Z,17.20
2023-02-22T03:11:05.541Z,16.58
2023-02-22T03:13:58.432Z,15.18
2023-02-22T03:16:50.087Z,15.88
2023-02-22T03:19:25.656Z,16.92
2023-02-22T03:22:01.094Z,14.68
2023-02-22T03:24:37.120Z,18.17
2023-02-22T03:27:13.029Z,16.42
2023-02-22T03:29:45.581Z,19.20
2023-02-22T03:32:18.193Z,18.67
2023-02-22T03:34:56.630Z,16.83
2023-02-22T03:37:29.866Z,18.30
2023-02-22T03:39:59.231Z,17.08
2023-02-22T03:42:31.224Z,15.75
2023-02-22T03:45:01.114Z,15.32
2023-02-22T03:47:39.905Z,15.25
2023-02-22T03:50:18.177Z,14.88
2023-02-22T03:52:47.332Z,14.95
2023-02-22T03:55:20.757Z,14.15
2023-02-22T03:57:51.760Z,17.27
2023-02-22T04:00:22.958Z,15.48
2023-02-22T04:02:49.865Z,15.70
2023-02-22T04:05:19.743Z,13.63
2023-02-22T04:07:47.100Z,15.10
2023-02-22T04:10:15.889Z,14.60
2023-02-22T04:12:43.357Z,12.07
2023-02-22T04:15:13.691Z,14.02
2023-02-22T04:17:40.054Z,14.98
2023-02-22T04:20:09.107Z,14.15
2023-02-22T04:22:43.739Z,13.88
2023-02-22T04:25:10.332Z,13.68
2023-02-22T04:27:36.936Z,13.43
2023-02-22T04:30:04.036Z,12.90
2023-02-22T04:32:31.822Z,12.70
2023-02-22T04:34:58.815Z,15.70
2023-02-22T04:37:26.774Z,12.98
2023-02-22T04:39:53.895Z,13.90
2023-02-22T04:42:20.720Z,13.00
2023-02-22T04:44:47.225Z,13.85
2023-02-22T04:47:13.778Z,14.27
2023-02-22T04:49:40.062Z,15.70
2023-02-22T04:52:06.900Z,13.32
2023-02-22T04:54:36.158Z,14.45
2023-02-22T04:57:02.679Z,15.82
2023-02-22T04:59:29.146Z,15.35
2023-02-22T05:02:00.735Z,16.45
2023-02-22T05:04:27.199Z,16.85
2023-02-22T05:06:55.036Z,15.13
2023-02-22T05:09:21.600Z,15.25
2023-02-22T05:11:47.941Z,15.60
2023-02-22T05:14:14.285Z,15.68
2023-02-22T05:16:40.702Z,15.60
2023-02-22T05:19:07.045Z,15.20
2023-02-22T05:21:33.608Z,16.05
2023-02-22T05:23:59.977Z,15.80
2023-02-22T05:26:31.184Z,15.48
2023-02-22T05:28:58.693Z,15.23
2023-02-22T05:31:25.164Z,16.13
2023-02-22T05:33:51.495Z,16.10
2023-02-22T05:36:17.865Z,15.48
2023-02-22T05:38:44.693Z,14.95
2023-02-22T05:41:12.653Z,15.77
2023-02-22T05:43:40.285Z,16.45
2023-02-22T05:46:07.202Z,17.70
2023-02-22T05:48:34.015Z,15.20
2023-02-22T05:51:00.318Z,15.25
2023-02-22T05:53:27.613Z,17.15
2023-02-22T05:55:53.923Z,15.27
2023-02-22T05:58:20.237Z,16.13
2023-02-22T06:00:46.621Z,15.60
2023-02-22T06:03:13.628Z,15.20
2023-02-22T06:05:41.478Z,15.23
2023-02-22T06:08:08.542Z,14.35
2023-02-22T06:10:34.881Z,13.23
2023-02-22T06:13:01.782Z,13.57
2023-02-22T06:15:28.928Z,14.70
2023-02-22T06:17:56.775Z,15.88
2023-02-22T06:20:25.386Z,13.95
2023-02-22T06:22:53.630Z,13.50
2023-02-22T06:25:24.094Z,16.42
2023-02-22T06:27:50.571Z,14.77
2023-02-22T06:30:19.603Z,15.98
2023-02-22T06:32:45.969Z,14.57
2023-02-22T06:35:12.267Z,13.20
2023-02-22T06:37:40.138Z,14.90
2023-02-22T06:40:07.046Z,15.10
2023-02-22T06:42:33.452Z,17.80
2023-02-22T06:45:00.185Z,14.35
2023-02-22T06:47:26.621Z,15.25
2023-02-22T06:49:56.969Z,29.33
2023-02-22T06:52:23.686Z,21.27
2023-02-22T06:54:50.619Z,17.60
2023-02-22T06:57:17.955Z,17.17
2023-02-22T06:59:44.550Z,16.67
2023-02-22T07:02:13.789Z,16.13
2023-02-22T07:04:43.173Z,15.82
2023-02-22T07:07:09.828Z,15.73
2023-02-22T07:09:36.136Z,17.25
2023-02-22T07:12:02.418Z,16.38
2023-02-22T07:14:28.758Z,16.38
2023-02-22T07:16:55.078Z,17.48
2023-02-22T07:19:21.437Z,15.43
2023-02-22T07:21:47.986Z,15.82
2023-02-22T07:24:14.513Z,17.20
2023-02-22T07:26:42.109Z,19.55
2023-02-22T07:29:08.633Z,16.42
2023-02-22T07:31:36.561Z,15.98
2023-02-22T07:34:02.934Z,15.52
2023-02-22T07:36:29.215Z,15.90
2023-02-22T07:38:55.500Z,16.10
2023-02-22T07:41:22.749Z,16.40
2023-02-22T07:43:49.099Z,14.90
2023-02-22T07:46:15.396Z,15.77
2023-02-22T07:48:41.852Z,15.95
2023-02-22T07:51:09.731Z,15.93
2023-02-22T07:53:36.063Z,17.48
2023-02-22T07:56:05.130Z,15.63
2023-02-22T07:58:32.580Z,14.77
2023-02-22T08:01:01.889Z,16.17
2023-02-22T08:03:36.292Z,18.70
2023-02-22T08:06:02.999Z,21.67
2023-02-22T08:08:29.331Z,29.23
2023-02-22T08:10:56.327Z,47.85
2023-02-22T08:13:23.579Z,26.10
2023-02-22T08:15:53.066Z,23.38
2023-02-22T08:18:20.871Z,19.20
2023-02-22T08:20:49.361Z,15.88
2023-02-22T08:23:17.168Z,18.17
2023-02-22T08:25:44.395Z,15.77
2023-02-22T08:28:13.662Z,25.02
2023-02-22T08:30:42.787Z,17.23
2023-02-22T08:33:13.449Z,15.43
2023-02-22T08:35:40.902Z,15.50
2023-02-22T08:38:08.476Z,15.55
2023-02-22T08:40:36.965Z,17.85
2023-02-22T08:43:04.362Z,15.45
2023-02-22T08:45:30.860Z,16.13
2023-02-22T08:47:58.211Z,15.70
2023-02-22T08:50:27.540Z,17.50
2023-02-22T08:52:56.655Z,18.65
2023-02-22T08:55:24.964Z,17.05
2023-02-22T08:57:51.544Z,15.05
2023-02-22T09:00:19.674Z,18.70
2023-02-22T09:02:46.112Z,17.13
2023-02-22T09:05:12.505Z,18.17
2023-02-22T09:07:42.357Z,15.90
2023-02-22T09:10:15.380Z,16.67
2023-02-22T09:12:42.457Z,16.15
2023-02-22T09:15:09.640Z,16.77
2023-02-22T09:17:37.314Z,15.52
2023-02-22T09:20:06.111Z,15.57
2023-02-22T09:22:32.469Z,15.63
2023-02-22T09:25:02.594Z,17.27
2023-02-22T09:27:34.320Z,15.82
2023-02-22T09:30:00.839Z,17.35
2023-02-22T09:32:28.427Z,16.15
2023-02-22T09:34:55.590Z,15.93
2023-02-22T09:37:22.677Z,15.57
2023-02-22T09:39:49.245Z,18.95
2023-02-22T09:42:25.772Z,19.95
2023-02-22T09:45:03.620Z,18.60
2023-02-22T09:47:40.490Z,18.00
2023-02-22T09:50:18.853Z,18.50
2023-02-22T09:53:04.812Z,18.15
2023-02-22T09:55:50.400Z,17.00
2023-02-22T09:58:28.472Z,16.00
2023-02-22T10:01:00.797Z,18.60
2023-02-22T10:03:36.704Z,18.50
2023-02-22T10:06:15.508Z,20.00
2023-02-22T10:08:44.663Z,16.80
2023-02-22T10:11:37.840Z,17.90
2023-02-22T10:14:33.239Z,20.30
2023-02-22T10:17:35.847Z,20.10
2023-02-22T10:20:48.446Z,20.75
2023-02-22T10:23:24.061Z,22.15
2023-02-22T10:26:06.100Z,24.05
2023-02-22T10:28:39.439Z,25.38
2023-02-22T10:31:08.900Z,27.02
2023-02-22T10:33:48.703Z,25.15
2023-02-22T10:36:19.978Z,28.83
2023-02-22T10:39:02.097Z,29.98
2023-02-22T10:41:31.633Z,29.42
2023-02-22T10:43:58.412Z,30.67
2023-02-22T10:46:28.259Z,32.03
2023-02-22T10:49:00.204Z,33.58
2023-02-22T10:51:26.621Z,30.63
2023-02-22T10:54:21.045Z,30.80
2023-02-22T10:56:49.914Z,29.70
2023-02-22T10:59:41.891Z,31.70
2023-02-22T11:02:19.362Z,31.35
2023-02-22T11:04:54.949Z,29.52
2023-02-22T11:07:35.891Z,28.90
2023-02-22T11:10:09.237Z,31.30
2023-02-22T11:12:39.325Z,28.55
2023-02-22T11:15:18.348Z,28.15
2023-02-22T11:17:47.873Z,24.88
2023-02-22T11:20:27.951Z,27.95
2023-02-22T11:23:01.021Z,26.75
2023-02-22T11:25:34.904Z,25.00
2023-02-22T11:28:10.061Z,25.92
2023-02-22T11:30:38.165Z,25.75
2023-02-22T11:33:16.843Z,26.48
2023-02-22T11:36:10.127Z,24.10
2023-02-22T11:38:39.002Z,24.67
2023-02-22T11:41:05.372Z,24.73
2023-02-22T11:43:31.978Z,25.08
2023-02-22T11:46:27.341Z,26.70
2023-02-22T11:49:05.894Z,26.83
2023-02-22T11:52:07.335Z,26.30
2023-02-22T11:54:47.411Z,25.10
2023-02-22T11:57:24.059Z,23.27
2023-02-22T12:00:15.912Z,23.95
2023-02-22T12:03:00.917Z,26.25
2023-02-22T12:05:42.566Z,25.15
2023-02-22T12:08:27.122Z,24.98
2023-02-22T12:11:12.755Z,24.85
2023-02-22T12:14:10.452Z,24.25
2023-02-22T12:17:07.559Z,32.35
2023-02-22T12:19:39.252Z,33.75
2023-02-22T12:22:12.931Z,54.83
2023-02-22T12:25:10.299Z,58.95
2023-02-22T12:27:43.376Z,36.45
2023-02-22T12:30:28.687Z,34.72
2023-02-22T12:33:03.139Z,31.23
2023-02-22T12:35:37.350Z,30.38
2023-02-22T12:38:15.705Z,28.80
2023-02-22T12:41:08.706Z,29.67
2023-02-22T12:43:41.810Z,27.10
2023-02-22T12:46:19.094Z,29.88
2023-02-22T12:48:54.546Z,25.73
2023-02-22T12:51:36.845Z,24.63
2023-02-22T12:54:05.959Z,26.27
2023-02-22T12:56:42.803Z,26.98
2023-02-22T12:59:19.118Z,24.95
2023-02-22T13:01:52.107Z,28.45
2023-02-22T13:04:21.340Z,27.40
2023-02-22T13:07:05.218Z,31.35
2023-02-22T13:09:50.301Z,26.70
2023-02-22T13:12:32.542Z,26.65
2023-02-22T13:15:11.079Z,25.25
2023-02-22T13:18:21.200Z,26.10
2023-02-22T13:20:54.000Z,26.42
2023-02-22T13:23:35.902Z,25.75
2023-02-22T13:26:28.493Z,22.88
2023-02-22T13:29:05.499Z,24.05
2023-02-22T13:31:53.298Z,22.50
2023-02-22T13:34:30.076Z,23.45
2023-02-22T13:37:30.768Z,26.23
2023-02-22T13:40:16.693Z,26.63
2023-02-22T13:42:59.619Z,25.65
2023-02-22T13:46:12.459Z,24.08
2023-02-22T13:48:52.709Z,23.63
2023-02-22T13:51:58.852Z,25.38
2023-02-22T13:54:51.253Z,23.75
2023-02-22T13:57:40.014Z,23.58
2023-02-22T14:00:15.511Z,25.02
2023-02-22T14:03:03.263Z,23.35
2023-02-22T14:05:42.362Z,24.27
2023-02-22T14:08:28.839Z,23.92
2023-02-22T14:10:56.682Z,26.23
2023-02-22T14:13:26.525Z,23.95
2023-02-22T14:15:59.744Z,23.75
2023-02-22T14:18:42.886Z,24.90
2023-02-22T14:21:11.454Z,26.38
2023-02-22T14:23:54.864Z,23.00
2023-02-22T14:26:27.019Z,21.90
2023-02-22T14:29:07.416Z,22.60
2023-02-22T14:31:51.762Z,24.43
2023-02-22T14:34:21.351Z,24.15
2023-02-22T14:36:58.492Z,23.77
2023-02-22T14:39:34.352Z,23.17
2023-02-22T14:42:18.034Z,25.42
2023-02-22T14:45:16.962Z,26.38
2023-02-22T14:48:00.925Z,25.08
2023-02-22T14:50:41.502Z,24.35
2023-02-22T14:53:23.491Z,22.98
2023-02-22T14:55:56.509Z,23.17
2023-02-22T14:58:46.408Z,25.73
2023-02-22T15:01:33.939Z,24.58
2023-02-22T15:04:30.826Z,24.48
2023-02-22T15:06:59.745Z,22.42
2023-02-22T15:09:30.670Z,21.30
2023-02-22T15:12:05.196Z,22.33
2023-02-22T15:14:44.467Z,23.52
2023-02-22T15:17:19.436Z,24.52
2023-02-22T15:19:48.582Z,24.90
2023-02-22T15:22:20.606Z,24.95
2023-02-22T15:24:58.673Z,27.10
2023-02-22T15:27:26.091Z,30.40
2023-02-22T15:29:59.857Z,24.65
2023-02-22T15:32:30.988Z,25.40
2023-02-22T15:37:44.638Z,24.80
2023-02-22T15:40:21.713Z,23.88
2023-02-22T15:42:53.022Z,23.33
2023-02-22T15:45:25.047Z,23.35
2023-02-22T15:47:55.834Z,24.10
2023-02-22T15:50:34.040Z,24.63
2023-02-22T15:53:02.673Z,25.25
2023-02-22T15:55:33.196Z,24.98
2023-02-22T15:58:07.258Z,25.17
2023-02-22T16:00:39.987Z,23.98
2023-02-22T16:03:12.395Z,24.40
2023-02-22T16:05:51.327Z,22.67
2023-02-22T16:08:23.019Z,22.80
2023-02-22T16:10:57.780Z,24.45
2023-02-22T16:13:32.118Z,23.00
2023-02-22T16:16:03.291Z,23.25
2023-02-22T16:18:35.991Z,23.73
2023-02-22T16:21:07.313Z,23.02
2023-02-22T16:23:47.691Z,24.05
2023-02-22T16:26:32.589Z,24.47
2023-02-22T16:29:08.428Z,26.88
2023-02-22T16:31:37.625Z,24.67
2023-02-22T16:34:06.391Z,25.05
2023-02-22T16:36:38.956Z,23.05
2023-02-22T16:39:07.574Z,26.00
2023-02-22T16:41:34.319Z,25.90
2023-02-22T16:44:00.688Z,24.95
2023-02-22T16:46:27.041Z,23.15
2023-02-22T16:48:53.499Z,23.67
2023-02-22T16:51:26.450Z,22.50
2023-02-22T16:53:55.148Z,22.90
2023-02-22T16:56:30.908Z,24.13
2023-02-22T16:59:00.927Z,23.92
2023-02-22T17:01:27.243Z,22.77
2023-02-22T17:03:54.070Z,22.38
2023-02-22T17:06:21.190Z,21.63
2023-02-22T17:08:48.632Z,20.65
2023-02-22T17:11:14.930Z,18.70
2023-02-22T17:13:41.294Z,18.52
2023-02-22T17:16:14.040Z,17.17
2023-02-22T17:18:40.571Z,16.80
2023-02-22T17:21:07.092Z,17.00
2023-02-22T17:23:34.699Z,17.10
2023-02-22T17:26:02.204Z,16.20
2023-02-22T17:28:29.112Z,17.10
2023-02-22T17:31:01.051Z,17.65
2023-02-22T17:33:30.596Z,15.65
2023-02-22T17:35:58.328Z,15.07
2023-02-22T17:38:28.653Z,15.75
2023-02-22T17:40:55.886Z,24.40
2023-02-22T17:43:22.846Z,32.05
2023-02-22T17:45:49.787Z,49.47
2023-02-22T17:48:17.511Z,41.05
2023-02-22T17:50:46.343Z,46.28
2023-02-22T17:53:13.217Z,55.60
2023-02-22T17:55:42.044Z,53.58
2023-02-22T17:58:14.426Z,32.35
2023-02-22T18:00:44.216Z,25.10
2023-02-22T18:03:14.094Z,31.02
2023-02-22T18:05:46.914Z,26.65
2023-02-22T18:08:14.463Z,20.42
2023-02-22T18:10:44.774Z,24.25
2023-02-22T18:13:18.524Z,22.40
2023-02-22T18:15:46.782Z,20.58
2023-02-22T18:18:13.496Z,16.50
2023-02-22T18:20:44.501Z,18.92
2023-02-22T18:23:13.598Z,20.55
2023-02-22T18:25:40.280Z,25.52
2023-02-22T18:28:08.186Z,21.23
2023-02-22T18:30:36.667Z,20.35
2023-02-22T18:33:06.845Z,16.85
2023-02-22T18:35:33.240Z,14.32
2023-02-22T18:38:00.705Z,19.23
2023-02-22T18:40:27.167Z,18.23
2023-02-22T18:42:53.441Z,20.45
2023-02-22T18:45:20.951Z,19.27
2023-02-22T18:47:47.353Z,17.35
2023-02-22T18:50:15.645Z,16.08
2023-02-22T18:52:45.614Z,14.63
2023-02-22T18:55:13.053Z,14.63
2023-02-22T18:57:39.540Z,18.02
2023-02-22T19:00:07.686Z,19.75
2023-02-22T19:02:34.066Z,18.83
2023-02-22T19:05:00.377Z,18.35
2023-02-22T19:07:27.038Z,23.80
2023-02-22T19:09:53.386Z,26.83
2023-02-22T19:12:19.806Z,22.92
2023-02-22T19:14:46.127Z,21.58
2023-02-22T19:17:16.044Z,22.10
2023-02-22T19:19:43.791Z,19.70
2023-02-22T19:22:14.908Z,17.17
2023-02-22T19:24:42.457Z,15.85
2023-02-22T19:27:09.557Z,14.65
2023-02-22T19:29:38.554Z,15.65
2023-02-22T19:32:06.402Z,15.07
2023-02-22T19:34:33.114Z,16.42
2023-02-22T19:37:04.910Z,15.55
2023-02-22T19:39:33.492Z,15.00
2023-02-22T19:42:00.500Z,15.40
2023-02-22T19:44:27.982Z,14.45
2023-02-22T19:46:55.292Z,16.67
2023-02-22T19:49:22.677Z,15.52
2023-02-22T19:51:49.543Z,15.20
2023-02-22T19:54:19.334Z,13.52
2023-02-22T19:56:50.606Z,15.43
2023-02-22T20:01:47.583Z,16.73
2023-02-22T20:04:21.245Z,14.55
2023-02-22T20:06:50.467Z,14.75
2023-02-22T20:09:20.059Z,15.00
2023-02-22T20:11:47.590Z,14.85
2023-02-22T20:14:23.286Z,15.77
2023-02-22T20:16:54.836Z,15.85
2023-02-22T20:19:24.429Z,15.48
2023-02-22T20:21:52.164Z,16.80
2023-02-22T20:24:18.959Z,18.27
2023-02-22T20:26:46.683Z,17.50
2023-02-22T20:29:13.963Z,18.80
2023-02-22T20:31:42.036Z,18.60
2023-02-22T20:34:09.750Z,18.08
2023-02-22T20:36:38.916Z,18.60
2023-02-22T20:39:13.155Z,19.50
2023-02-22T20:41:42.476Z,19.33
2023-02-22T20:44:11.912Z,19.83
2023-02-22T20:46:38.324Z,19.05
2023-02-22T20:49:11.008Z,19.55
2023-02-22T20:51:41.879Z,22.17
2023-02-22T20:54:11.917Z,21.85
2023-02-22T20:56:41.714Z,21.30
2023-02-22T20:59:11.718Z,23.58
2023-02-22T21:01:38.107Z,26.75
2023-02-22T21:04:06.428Z,25.35
2023-02-22T21:06:35.487Z,26.85
2023-02-22T21:09:06.384Z,25.23
2023-02-22T21:11:33.628Z,25.23
2023-02-22T21:14:00.892Z,37.33
2023-02-22T21:16:34.411Z,47.13
2023-02-22T21:19:04.684Z,58.47
2023-02-22T21:21:31.770Z,48.17
2023-02-22T21:24:02.385Z,28.73
2023-02-22T21:26:31.376Z,24.17
2023-02-22T21:29:00.494Z,27.27
2023-02-22T21:31:28.437Z,28.92
2023-02-22T21:33:56.933Z,29.60
2023-02-22T21:36:25.104Z,29.50
2023-02-22T21:38:57.756Z,28.35
2023-02-22T21:41:30.118Z,29.92
2023-02-22T21:43:58.636Z,28.70
2023-02-22T21:46:27.741Z,30.27
2023-02-22T21:48:54.184Z,32.92
2023-02-22T21:51:31.981Z,30.17
2023-02-22T21:54:03.634Z,32.47
2023-02-22T21:56:32.280Z,33.30
2023-02-22T21:59:02.822Z,30.27
2023-02-22T22:01:33.291Z,30.90
2023-02-22T22:04:01.681Z,32.55
2023-02-22T22:06:30.299Z,32.42
2023-02-22T22:08:57.806Z,34.28
2023-02-22T22:11:25.082Z,35.85
2023-02-22T22:13:53.398Z,35.05
2023-02-22T22:16:20.433Z,40.22
2023-02-22T22:18:46.894Z,35.30
2023-02-22T22:21:19.615Z,37.42
2023-02-22T22:23:47.231Z,34.45
2023-02-22T22:26:16.279Z,33.40
2023-02-22T22:28:44.956Z,32.25
2023-02-22T22:31:12.151Z,33.08
2023-02-22T22:33:41.279Z,37.58
2023-02-22T22:36:09.235Z,34.03
2023-02-22T22:38:39.598Z,35.08
2023-02-22T22:41:08.033Z,33.67
2023-02-22T22:43:36.914Z,35.28
2023-02-22T22:46:05.496Z,34.55
2023-02-22T22:48:35.991Z,29.80
2023-02-22T22:51:06.569Z,30.88
2023-02-22T22:53:34.148Z,37.38
2023-02-22T22:56:14.119Z,29.13
2023-02-22T22:58:48.269Z,30.38
2023-02-22T23:01:27.347Z,34.17
2023-02-22T23:04:01.674Z,31.73
2023-02-22T23:06:33.861Z,32.88
2023-02-22T23:09:13.126Z,35.88
2023-02-22T23:11:45.108Z,33.05
2023-02-22T23:14:20.716Z,32.17
2023-02-22T23:16:52.958Z,38.97
2023-02-22T23:19:19.706Z,37.00
2023-02-22T23:21:47.812Z,35.58
2023-02-22T23:24:15.667Z,33.15
2023-02-22T23:26:42.671Z,30.88
2023-02-22T23:29:09.653Z,31.77
2023-02-22T23:31:39.415Z,30.20
2023-02-22T23:34:10.961Z,27.85
2023-02-22T23:36:38.993Z,41.83
2023-02-22T23:39:09.213Z,36.40
2023-02-22T23:41:36.351Z,35.45
2023-02-22T23:44:08.077Z,34.15
2023-02-22T23:46:36.348Z,38.33
2023-02-22T23:49:05.198Z,37.17
2023-02-22T23:51:49.833Z,37.13
2023-02-22T23:54:21.577Z,34.47
2023-02-22T23:56:56.858Z,34.13
2023-02-22T23:59:27.225Z,32.47
